• Join FlightAware (Why Join?)
  • Login
  • US Flag 
02:02PM EST


 

Airport Tracker/Info


-or-


 

Live Flight TrackerFlight Track Log ✈ FLG3780 ✈ 18-Jun-2013 ✈ KDTW - KMHT

Flight Track Log - Related Links

Times and Time Zones

All times are in EDT time to prevent confusion due to time zone crossing. See the FLG3780 flight status page for this flight to view local times or setup timezone preferences in your user account.

Time Position Orientation Groundspeed Altitude Reporting Facility
EDT Latitude Longitude Course Direction KTS MPH feet Rate Location/Type
02:17PM 42.2314 -83.3342 94° East 147 169 1,300  Level Cleveland Center
02:18PM 42.2611 -83.3075 34° Northeast 183 211 3,000 1,980 Climbing Cleveland Center
02:19PM 42.3125 -83.2564 36° Northeast 256 295 5,000 2,280 Climbing Cleveland Center
02:20PM 42.3183 -82.6978 78° East  Level FlightAware Approximate
02:20PM 42.3539 -83.1739 56° Northeast 285 328 7,700  Level Cleveland Center
02:21PM 42.3420 -82.5315 77° East  Level FlightAware Approximate
02:21PM 42.3500 -83.0639 93° East 300 345 10,000  Level Cleveland Center
02:22PM 42.3623 -82.3701 94° East  Level FlightAware Approximate
02:22PM 42.3450 -82.9036 92° East 351 404 10,000  Level Cleveland Center
02:23PM 42.3392 -82.7800 94° East 345 397 10,000 900 Level Cleveland Center
02:24PM 42.3375 -82.6506 91° East 345 397 11,800 1,860 Climbing Cleveland Center
02:25PM 42.3564 -82.5219 79° East 345 397 13,800 1,680 Climbing Cleveland Center
02:26PM 42.3647 -82.3844 85° East 357 411 15,200 1,500 Climbing Cleveland Center
02:27PM 42.3586 -82.2411 93° East 363 418 16,800 1,500 Climbing Cleveland Center
02:28PM 42.3544 -82.0975 92° East 374 430 18,200 1,260 Climbing Cleveland Center
02:29PM 42.3478 -81.9542 94° East 379 436 19,400 1,200 Climbing Cleveland Center
02:30PM 42.3411 -81.8022 93° East 396 456 20,700 1,080 Climbing Cleveland Center
02:31PM 42.3342 -81.6561 94° East 396 456 21,600 780 Climbing Cleveland Center
02:32PM 42.3253 -81.4847 94° East 405 466 22,300 600 Climbing Cleveland Center
02:33PM 42.3181 -81.3217 93° East 418 481 22,900 600 Climbing Cleveland Center
02:34PM 42.3086 -81.1531 94° East 433 498 23,600 720 Climbing Cleveland Center
02:35PM 42.2989 -80.9844 94° East 447 514 24,400 720 Climbing Cleveland Center
02:36PM 42.2911 -80.8161 94° East 447 514 25,100 660 Climbing Cleveland Center
02:37PM 42.2831 -80.6478 94° East 447 514 25,800 600 Climbing Cleveland Center
02:38PM 42.2725 -80.4767 95° East 452 520 26,400 540 Climbing Cleveland Center
02:39PM 42.2619 -80.3028 95° East 463 533 26,900 480 Climbing Cleveland Center
02:40PM 42.2531 -80.1456 94° East 463 533 27,400 480 Climbing Cleveland Center
02:41PM 42.2439 -79.9689 94° East 463 533 27,900 480 Climbing Cleveland Center
02:42PM 42.2325 -79.7925 95° East 463 533 28,400 480 Climbing Cleveland Center
02:43PM 42.2208 -79.6214 95° East 463 533 28,900 300 Climbing Cleveland Center
02:44PM 42.2294 -79.4364 86° East 463 533 29,000  Climbing Cleveland Center
02:45PM 42.2483 -79.2536 82° East 480 552 29,000  Level Cleveland Center
02:46PM 42.2708 -79.0594 81° East 494 568 29,000  Level Cleveland Center
02:47PM 42.2953 -78.8569 81° East 506 582 29,000  Level Cleveland Center
02:48PM 42.3172 -78.6625 81° East 511 588 29,000  Level Cleveland Center
02:49PM 42.3367 -78.4681 82° East 511 588 29,000  Level Cleveland Center
02:50PM 42.3581 -78.2764 81° East 516 594 29,000  Level Cleveland Center
02:51PM 42.3789 -78.0844 82° East 516 594 29,000  Level Cleveland Center
02:52PM 42.3997 -77.8894 82° East 521 600 29,000  Level Cleveland Center
02:53PM 42.4178 -77.6975 83° East 521 600 29,000  Level Cleveland Center
02:55PM 42.4461 -77.4044 82° East 508 585 29,000  Level Boston Center
02:56PM 42.4706 -77.1753 82° East 508 585 29,000  Level Boston Center
02:57PM 42.4889 -76.9822 83° East 508 585 29,000  Level Boston Center
02:58PM 42.5031 -76.8283 83° East 513 590 29,000  Level Boston Center
02:59PM 42.5244 -76.5961 83° East 519 597 29,000  Level Boston Center
03:00PM 42.5417 -76.4028 83° East 519 597 29,000  Level Boston Center
03:01PM 42.5581 -76.2317 83° East 519 597 29,000  Level Boston Center
03:02PM 42.5747 -76.0353 83° East 513 590 29,000  Level Boston Center
03:03PM 42.5933 -75.8389 83° East 519 597 29,000  Level Boston Center
03:04PM 42.6075 -75.6422 84° East 514 592 29,000  Level Boston Center
03:05PM 42.6283 -75.4089 83° East 514 592 29,000  Level Boston Center
03:06PM 42.6475 -75.1500 84° East 521 600 29,000  Level Boston Center
03:07PM 42.6672 -74.9164 83° East 521 600 29,000  Level Boston Center
03:08PM 42.6819 -74.7194 84° East 521 600 29,000  Level Boston Center
03:09PM 42.6961 -74.5192 84° East 521 600 29,000 -420 Level Boston Center
03:10PM 42.7100 -74.3192 85° East 521 600 28,200 -1,020 Descending Boston Center
03:11PM 42.7256 -74.1275 84° East 516 594 27,000 -600 Descending Boston Center
03:12PM 42.7344 -73.9439 86° East 501 577 27,000  Level Boston Center
03:13PM 42.7467 -73.7944 84° East 495 570 27,000  Level Boston Center
03:14PM 42.7553 -73.5853 87° East 495 570 27,000 -840 Level Boston Center
03:15PM 42.7631 -73.3958 87° East 501 577 25,400 -1,500 Descending Boston Center
03:16PM 42.7708 -73.2122 87° East 495 570 24,000 -1,800 Descending Boston Center
03:17PM 42.7742 -73.0169 89° East 483 556 21,900 -2,580 Descending Boston Center
03:18PM 42.7789 -72.8503 88° East 464 534 18,900 -2,400 Descending Boston Center
03:19PM 42.7836 -72.6947 88° East 426 490 17,100 -1,800 Descending Boston Center
03:20PM 42.7881 -72.5561 87° East 398 458 15,300 -1,800 Descending Boston Center
03:21PM 42.7922 -72.4231 88° East 366 421 13,600 -1,560 Descending Boston Center
03:22PM 42.7964 -72.2958 87° East 346 398 12,200 -1,320 Descending Boston Center
03:24PM 42.8128 -72.1883 78° East 328 377 10,700 -1,380 Descending Boston Center
03:25PM 42.8353 -72.0325 79° East 318 366 9,000 -1,560 Descending Boston Center
03:26PM 42.8575 -71.8964 77° East 313 360 7,300 -1,620 Descending Boston Center
03:27PM 42.8569 -71.7944 90° East 303 349 5,500 -1,920 Descending Boston Center
03:28PM 42.8478 -71.6614 95° East 280 322 3,100 -2,400 Descending Boston Center